createdAt,value
2018-08-23T00:00:45.611Z,42.30
2018-08-23T00:01:25.645Z,41.37
2018-08-23T00:02:04.750Z,41.97
2018-08-23T00:02:38.468Z,42.07
2018-08-23T00:03:18.522Z,39.83
2018-08-23T00:03:52.597Z,40.87
2018-08-23T00:04:26.493Z,42.70
2018-08-23T00:05:00.333Z,44.00
2018-08-23T00:05:46.365Z,49.40
2018-08-23T00:06:20.539Z,46.07
2018-08-23T00:07:03.267Z,43.17
2018-08-23T00:07:37.208Z,42.07
2018-08-23T00:08:11.146Z,39.97
2018-08-23T00:08:47.397Z,42.50
2018-08-23T00:09:21.434Z,44.57
2018-08-23T00:09:55.280Z,41.33
2018-08-23T00:10:33.706Z,39.47
2018-08-23T00:11:07.373Z,41.93
2018-08-23T00:11:45.322Z,42.67
2018-08-23T00:12:23.520Z,38.97
2018-08-23T00:12:57.584Z,41.10
2018-08-23T00:13:37.310Z,42.60
2018-08-23T00:14:11.657Z,42.77
2018-08-23T00:14:45.595Z,45.97
2018-08-23T00:15:21.163Z,43.70
2018-08-23T00:15:55.152Z,45.90
2018-08-23T00:16:34.754Z,43.57
2018-08-23T00:17:13.123Z,45.40
2018-08-23T00:17:46.918Z,44.70
2018-08-23T00:18:20.908Z,44.03
2018-08-23T00:18:55.041Z,41.50
2018-08-23T00:19:28.905Z,43.20
2018-08-23T00:20:04.576Z,45.37
2018-08-23T00:20:46.740Z,41.77
2018-08-23T00:21:25.599Z,43.23
2018-08-23T00:21:59.462Z,44.43
2018-08-23T00:22:33.427Z,43.37
2018-08-23T00:23:07.930Z,41.53
2018-08-23T00:23:44.591Z,43.67
2018-08-23T00:24:21.704Z,42.97
2018-08-23T00:24:55.636Z,44.30
2018-08-23T00:25:30.246Z,44.73
2018-08-23T00:26:04.374Z,46.40
2018-08-23T00:26:49.975Z,45.20
2018-08-23T00:27:32.512Z,48.23
2018-08-23T00:28:07.158Z,45.47
2018-08-23T00:28:41.456Z,43.20
2018-08-23T00:29:21.769Z,43.97
2018-08-23T00:29:55.860Z,48.60
2018-08-23T00:30:32.901Z,48.20
2018-08-23T00:31:06.844Z,47.10
2018-08-23T00:31:41.171Z,46.60
2018-08-23T00:32:15.956Z,47.20
2018-08-23T00:32:49.631Z,45.83
2018-08-23T00:33:23.344Z,48.60
2018-08-23T00:33:57.152Z,48.77
2018-08-23T00:34:37.108Z,49.73
2018-08-23T00:35:16.526Z,49.40
2018-08-23T00:35:50.416Z,49.10
2018-08-23T00:36:24.224Z,49.43
2018-08-23T00:36:58.301Z,50.23
2018-08-23T00:37:32.364Z,46.90
2018-08-23T00:38:07.082Z,48.40
2018-08-23T00:38:45.079Z,49.23
2018-08-23T00:39:19.376Z,48.60
2018-08-23T00:39:53.935Z,49.77
2018-08-23T00:40:27.868Z,51.80
2018-08-23T00:41:01.740Z,52.47
2018-08-23T00:41:38.742Z,50.13
2018-08-23T00:42:12.681Z,50.93
2018-08-23T00:42:52.314Z,49.70
2018-08-23T00:43:26.047Z,49.37
2018-08-23T00:43:59.992Z,49.27
2018-08-23T00:44:49.784Z,49.63
2018-08-23T00:45:23.658Z,48.70
2018-08-23T00:45:59.453Z,49.13
2018-08-23T00:46:33.351Z,46.90
2018-08-23T00:47:12.081Z,47.30
2018-08-23T00:47:45.773Z,51.93
2018-08-23T00:48:19.573Z,48.07
2018-08-23T00:48:54.288Z,50.33
2018-08-23T00:49:31.300Z,48.67
2018-08-23T00:50:05.147Z,49.43
2018-08-23T00:50:57.189Z,50.00
2018-08-23T00:51:33.036Z,50.40
2018-08-23T00:52:09.144Z,47.93
2018-08-23T00:52:44.333Z,48.70
2018-08-23T00:53:18.373Z,49.83
2018-08-23T00:53:57.811Z,55.17
2018-08-23T00:54:31.803Z,50.97
2018-08-23T00:55:29.256Z,58.07
2018-08-23T00:56:22.386Z,52.77
2018-08-23T00:56:56.187Z,49.43
2018-08-23T00:57:30.093Z,51.20
2018-08-23T00:58:04.184Z,55.63
2018-08-23T00:58:39.540Z,52.77
2018-08-23T00:59:14.480Z,51.27
2018-08-23T00:59:54.837Z,52.07
2018-08-23T01:00:30.168Z,50.93
2018-08-23T01:01:12.145Z,51.73
2018-08-23T01:01:59.283Z,50.73
2018-08-23T01:02:33.309Z,48.23
2018-08-23T01:03:07.280Z,49.57
2018-08-23T01:03:41.331Z,52.63
2018-08-23T01:04:18.595Z,55.50
2018-08-23T01:04:52.581Z,54.53
2018-08-23T01:05:32.121Z,52.43
2018-08-23T01:06:06.217Z,54.87
2018-08-23T01:06:41.630Z,57.83
2018-08-23T01:07:20.365Z,59.07
2018-08-23T01:07:59.391Z,55.07
2018-08-23T01:08:35.203Z,52.83
2018-08-23T01:09:10.712Z,51.27
2018-08-23T01:09:44.891Z,54.80
2018-08-23T01:10:18.881Z,50.33
2018-08-23T01:10:55.556Z,53.20
2018-08-23T01:11:29.573Z,51.07
2018-08-23T01:12:03.833Z,53.23
2018-08-23T01:12:49.129Z,56.23
2018-08-23T01:13:23.331Z,53.70
2018-08-23T01:13:57.334Z,53.70
2018-08-23T01:14:31.867Z,52.13
2018-08-23T01:15:06.338Z,50.60
2018-08-23T01:15:42.831Z,51.33
2018-08-23T01:16:16.686Z,53.57
2018-08-23T01:17:04.585Z,51.57
2018-08-23T01:17:38.343Z,51.70
2018-08-23T01:18:15.322Z,49.20
2018-08-23T01:18:49.175Z,49.57
2018-08-23T01:19:29.187Z,51.70
2018-08-23T01:20:03.202Z,49.97
2018-08-23T01:20:37.835Z,52.43
2018-08-23T01:21:12.164Z,53.37
2018-08-23T01:21:51.525Z,50.27
2018-08-23T01:22:25.320Z,51.17
2018-08-23T01:22:59.960Z,52.17
2018-08-23T01:23:34.891Z,50.57
2018-08-23T01:24:08.669Z,56.83
2018-08-23T01:24:46.650Z,53.03
2018-08-23T01:25:20.619Z,52.63
2018-08-23T01:25:54.588Z,54.07
2018-08-23T01:26:28.459Z,52.83
2018-08-23T01:27:02.061Z,58.27
2018-08-23T01:27:37.876Z,56.33
2018-08-23T01:28:11.952Z,56.93
2018-08-23T01:28:45.704Z,55.70
2018-08-23T01:29:29.485Z,52.97
2018-08-23T01:30:03.470Z,53.30
2018-08-23T01:30:38.085Z,53.90
2018-08-23T01:31:25.384Z,54.97
2018-08-23T01:32:08.787Z,55.57
2018-08-23T01:32:42.797Z,54.07
2018-08-23T01:33:18.217Z,59.00
2018-08-23T01:33:54.149Z,57.70
2018-08-23T01:34:32.089Z,54.57
2018-08-23T01:35:08.681Z,53.90
2018-08-23T01:35:44.762Z,62.30
2018-08-23T01:36:22.955Z,54.47
2018-08-23T01:36:57.122Z,57.60
2018-08-23T01:37:36.616Z,55.93
2018-08-23T01:38:13.039Z,54.37
2018-08-23T01:38:46.789Z,55.70
2018-08-23T01:39:20.498Z,58.53
2018-08-23T01:39:54.180Z,62.20
2018-08-23T01:40:28.412Z,57.60
2018-08-23T01:41:08.063Z,60.07
2018-08-23T01:41:41.807Z,57.20
2018-08-23T01:42:17.009Z,62.83
2018-08-23T01:42:50.952Z,59.83
2018-08-23T01:43:24.758Z,57.67
2018-08-23T01:43:58.751Z,56.57
2018-08-23T01:44:41.249Z,59.93
2018-08-23T01:45:15.183Z,55.40
2018-08-23T01:45:51.614Z,56.90
2018-08-23T01:46:29.563Z,55.77
2018-08-23T01:47:03.348Z,61.70
2018-08-23T01:47:55.466Z,57.33
2018-08-23T01:48:29.174Z,57.87
2018-08-23T01:49:05.096Z,53.13
2018-08-23T01:49:39.020Z,57.43
2018-08-23T01:50:13.930Z,54.67
2018-08-23T01:50:47.734Z,60.60
2018-08-23T01:51:21.613Z,56.83
2018-08-23T01:51:55.484Z,59.50
2018-08-23T01:52:30.110Z,63.57
2018-08-23T01:53:04.112Z,61.63
2018-08-23T01:53:38.672Z,59.60
2018-08-23T01:54:12.540Z,57.70
2018-08-23T01:54:46.497Z,62.30
2018-08-23T01:55:21.449Z,60.27
2018-08-23T01:55:55.316Z,59.70
2018-08-23T01:56:29.055Z,59.67
2018-08-23T01:57:02.736Z,63.50
2018-08-23T01:57:38.112Z,65.33
2018-08-23T01:58:13.487Z,59.90
2018-08-23T01:58:49.939Z,57.40
2018-08-23T01:59:23.731Z,61.07
2018-08-23T01:59:57.557Z,65.00
2018-08-23T02:00:32.644Z,58.90
2018-08-23T02:01:14.553Z,57.67
2018-08-23T02:01:48.667Z,58.50
2018-08-23T02:02:22.592Z,61.40
2018-08-23T02:02:56.444Z,57.00
2018-08-23T02:03:31.753Z,63.37
2018-08-23T02:04:05.968Z,61.60
2018-08-23T02:04:39.837Z,61.53
2018-08-23T02:05:14.358Z,63.07
2018-08-23T02:05:48.689Z,69.03
2018-08-23T02:06:31.158Z,66.17
2018-08-23T02:07:05.308Z,61.50
2018-08-23T02:07:39.103Z,56.87
2018-08-23T02:08:13.352Z,62.37
2018-08-23T02:08:52.531Z,61.40
2018-08-23T02:09:26.319Z,58.17
2018-08-23T02:10:00.963Z,62.33
2018-08-23T02:10:34.781Z,65.60
2018-08-23T02:11:08.493Z,54.23
2018-08-23T02:11:42.804Z,57.53
2018-08-23T02:12:17.339Z,58.73
2018-08-23T02:12:52.600Z,59.63
2018-08-23T02:13:28.442Z,63.30
2018-08-23T02:14:02.635Z,56.57
2018-08-23T02:14:40.957Z,60.37
2018-08-23T02:15:15.238Z,66.33
2018-08-23T02:15:50.396Z,61.57
2018-08-23T02:16:24.167Z,60.17
2018-08-23T02:16:57.940Z,55.83
2018-08-23T02:17:41.847Z,62.07
2018-08-23T02:18:16.553Z,65.17
2018-08-23T02:18:50.417Z,61.63
2018-08-23T02:19:24.269Z,62.17
2018-08-23T02:19:58.165Z,63.53
2018-08-23T02:20:31.920Z,61.07
2018-08-23T02:21:08.830Z,61.90
2018-08-23T02:21:42.964Z,60.17
2018-08-23T02:22:16.886Z,64.77
2018-08-23T02:22:51.061Z,59.60
2018-08-23T02:23:25.138Z,60.57
2018-08-23T02:24:01.369Z,61.13
2018-08-23T02:24:35.674Z,61.87
2018-08-23T02:25:09.596Z,61.23
2018-08-23T02:25:43.604Z,64.33
2018-08-23T02:26:17.468Z,63.70
2018-08-23T02:26:51.158Z,61.33
2018-08-23T02:27:24.806Z,61.23
2018-08-23T02:27:59.970Z,68.40
2018-08-23T02:28:34.388Z,66.70
2018-08-23T02:29:08.124Z,66.73
2018-08-23T02:29:45.575Z,66.97
2018-08-23T02:30:34.998Z,58.63
2018-08-23T02:31:08.903Z,66.90
2018-08-23T02:31:42.567Z,63.27
2018-08-23T02:32:16.534Z,64.50
2018-08-23T02:32:50.477Z,60.23
2018-08-23T02:33:25.288Z,62.37
2018-08-23T02:33:59.039Z,61.07
2018-08-23T02:34:42.296Z,58.13
2018-08-23T02:35:16.198Z,55.87
2018-08-23T02:36:22.191Z,59.83
2018-08-23T02:36:56.133Z,73.20
2018-08-23T02:37:30.913Z,68.90
2018-08-23T02:38:08.365Z,71.17
2018-08-23T02:38:42.182Z,70.67
2018-08-23T02:39:16.175Z,70.53
2018-08-23T02:39:50.220Z,68.17
2018-08-23T02:40:24.015Z,63.53
2018-08-23T02:40:57.890Z,66.13
2018-08-23T02:41:31.828Z,67.27
2018-08-23T02:42:05.796Z,63.30
2018-08-23T02:42:39.747Z,65.43
2018-08-23T02:43:13.563Z,65.00
2018-08-23T02:43:48.610Z,68.60
2018-08-23T02:44:22.248Z,72.73
2018-08-23T02:45:01.253Z,75.93
2018-08-23T02:45:41.500Z,62.90
2018-08-23T02:46:15.642Z,65.83
2018-08-23T02:46:50.008Z,63.13
2018-08-23T02:47:24.260Z,60.73
2018-08-23T02:47:59.181Z,62.47
2018-08-23T02:48:32.980Z,67.63
2018-08-23T02:49:07.788Z,67.77
2018-08-23T02:49:43.321Z,63.57
2018-08-23T02:50:17.095Z,64.07
2018-08-23T02:50:51.883Z,67.03
2018-08-23T02:51:41.372Z,69.13
2018-08-23T02:52:15.047Z,64.73
2018-08-23T02:52:49.084Z,65.47
2018-08-23T02:53:55.886Z,62.67
2018-08-23T02:54:30.044Z,63.73
2018-08-23T02:55:04.843Z,66.73
2018-08-23T02:55:43.257Z,59.03
2018-08-23T02:56:20.091Z,65.97
2018-08-23T02:56:57.814Z,54.67
2018-08-23T02:57:31.603Z,58.67
2018-08-23T02:58:08.727Z,58.53
2018-08-23T02:59:11.575Z,57.67
2018-08-23T02:59:45.520Z,59.33
2018-08-23T03:00:22.917Z,63.50
2018-08-23T03:00:56.908Z,69.63
2018-08-23T03:01:32.960Z,66.30
2018-08-23T03:02:12.275Z,63.87
2018-08-23T03:02:46.176Z,67.23
2018-08-23T03:03:20.550Z,64.63
2018-08-23T03:04:05.359Z,59.73
2018-08-23T03:04:39.580Z,64.73
2018-08-23T03:05:14.805Z,59.93
2018-08-23T03:05:48.894Z,66.03
2018-08-23T03:06:31.689Z,57.83
2018-08-23T03:07:05.742Z,61.53
2018-08-23T03:07:40.032Z,58.57
2018-08-23T03:08:13.864Z,60.30
2018-08-23T03:08:47.815Z,61.33
2018-08-23T03:09:25.470Z,58.20
2018-08-23T03:09:59.255Z,58.67
2018-08-23T03:10:33.898Z,60.07
2018-08-23T03:11:07.700Z,53.20
2018-08-23T03:11:41.741Z,55.27
2018-08-23T03:12:17.559Z,60.50
2018-08-23T03:12:51.356Z,63.30
2018-08-23T03:13:26.737Z,68.13
2018-08-23T03:14:00.484Z,59.53
2018-08-23T03:14:36.516Z,62.90
2018-08-23T03:15:10.464Z,61.13
2018-08-23T03:15:45.007Z,60.47
2018-08-23T03:16:18.864Z,65.93
2018-08-23T03:17:29.394Z,67.77
2018-08-23T03:18:06.732Z,71.83
2018-08-23T03:18:40.669Z,64.90
2018-08-23T03:19:15.130Z,61.03
2018-08-23T03:20:08.041Z,61.43
2018-08-23T03:20:41.767Z,66.00
2018-08-23T03:21:15.992Z,66.53
2018-08-23T03:21:57.887Z,65.20
2018-08-23T03:22:32.893Z,60.77
2018-08-23T03:23:06.653Z,58.70
2018-08-23T03:23:44.241Z,60.37
2018-08-23T03:24:20.089Z,59.93
2018-08-23T03:24:54.047Z,56.23
2018-08-23T03:25:28.219Z,62.73
2018-08-23T03:26:02.273Z,63.10
2018-08-23T03:26:38.740Z,68.53
2018-08-23T03:27:12.531Z,64.57
2018-08-23T03:27:46.285Z,70.27
2018-08-23T03:28:20.113Z,69.70
2018-08-23T03:28:54.184Z,68.23
2018-08-23T03:29:28.072Z,67.63
2018-08-23T03:30:02.924Z,63.83
2018-08-23T03:30:37.456Z,66.90
2018-08-23T03:31:11.195Z,63.40
2018-08-23T03:31:44.917Z,67.57
2018-08-23T03:32:18.688Z,60.00
2018-08-23T03:32:52.492Z,60.80
2018-08-23T03:33:26.741Z,58.63
2018-08-23T03:34:00.609Z,57.70
2018-08-23T03:34:34.365Z,59.70
2018-08-23T03:35:08.371Z,56.23
2018-08-23T03:35:42.190Z,59.33
2018-08-23T03:36:15.897Z,61.40
2018-08-23T03:36:49.631Z,58.27
2018-08-23T03:37:23.893Z,56.73
2018-08-23T03:38:13.184Z,57.47
2018-08-23T03:38:46.956Z,60.77
2018-08-23T03:39:20.718Z,58.10
2018-08-23T03:39:54.698Z,58.90
2018-08-23T03:40:28.889Z,59.43
2018-08-23T03:41:03.220Z,53.30
2018-08-23T03:41:37.673Z,57.57
2018-08-23T03:42:11.608Z,58.70
2018-08-23T03:42:45.282Z,55.93
2018-08-23T03:43:19.137Z,63.17
2018-08-23T03:43:53.078Z,63.97
2018-08-23T03:44:32.711Z,58.77
2018-08-23T03:45:11.870Z,62.00
2018-08-23T03:45:45.803Z,63.67
2018-08-23T03:46:19.528Z,59.57
2018-08-23T03:46:55.048Z,61.43
2018-08-23T03:47:36.036Z,61.17
2018-08-23T03:48:09.769Z,62.73
2018-08-23T03:48:46.549Z,60.60
2018-08-23T03:49:28.853Z,56.50
2018-08-23T03:50:02.824Z,61.67
2018-08-23T03:50:44.974Z,61.43
2018-08-23T03:51:18.732Z,58.03
2018-08-23T03:51:53.632Z,59.40
2018-08-23T03:52:39.203Z,60.60
2018-08-23T03:53:12.932Z,64.07
2018-08-23T03:53:52.368Z,57.27
2018-08-23T03:54:26.148Z,59.47
2018-08-23T03:55:01.166Z,58.90
2018-08-23T03:55:34.832Z,64.97
2018-08-23T03:56:15.504Z,59.80
2018-08-23T03:57:16.384Z,63.27
2018-08-23T03:58:00.233Z,59.87
2018-08-23T03:58:34.659Z,59.70
2018-08-23T03:59:08.492Z,60.73
2018-08-23T03:59:49.216Z,62.87
2018-08-23T04:00:29.142Z,63.63
2018-08-23T04:01:04.971Z,57.97
2018-08-23T04:01:43.720Z,58.73
2018-08-23T04:02:18.621Z,62.23
2018-08-23T04:02:52.383Z,60.93
2018-08-23T04:03:27.332Z,58.87
2018-08-23T04:04:02.475Z,61.20
2018-08-23T04:04:36.123Z,62.77
2018-08-23T04:05:18.695Z,63.73
2018-08-23T04:05:53.084Z,62.97
2018-08-23T04:06:32.206Z,61.50
2018-08-23T04:07:06.138Z,68.37
2018-08-23T04:07:41.111Z,63.63
2018-08-23T04:08:14.927Z,57.97
2018-08-23T04:08:49.152Z,64.17
2018-08-23T04:09:22.840Z,61.10
2018-08-23T04:09:56.672Z,64.27
2018-08-23T04:10:31.259Z,60.97
2018-08-23T04:11:05.382Z,60.27
2018-08-23T04:11:39.401Z,63.03
2018-08-23T04:12:13.309Z,68.17
2018-08-23T04:12:47.229Z,63.17
2018-08-23T04:13:21.530Z,64.93
2018-08-23T04:13:55.409Z,64.73
2018-08-23T04:14:29.407Z,66.10
2018-08-23T04:15:17.277Z,61.10
2018-08-23T04:15:51.241Z,58.83
2018-08-23T04:16:27.102Z,63.73
2018-08-23T04:17:03.195Z,63.53
2018-08-23T04:17:37.394Z,63.07
2018-08-23T04:18:15.428Z,62.20
2018-08-23T04:18:49.270Z,63.63
2018-08-23T04:19:23.211Z,64.50
2018-08-23T04:19:57.265Z,60.53
2018-08-23T04:20:31.433Z,64.50
2018-08-23T04:21:13.013Z,67.33
2018-08-23T04:21:46.782Z,65.23
2018-08-23T04:22:20.732Z,59.33
2018-08-23T04:22:54.563Z,63.50
2018-08-23T04:23:28.220Z,61.03
2018-08-23T04:24:02.465Z,65.53
2018-08-23T04:24:46.213Z,68.77
2018-08-23T04:25:20.189Z,64.23
2018-08-23T04:25:54.247Z,63.83
2018-08-23T04:26:28.312Z,68.57
2018-08-23T04:27:01.994Z,70.87
2018-08-23T04:27:36.101Z,67.00
2018-08-23T04:28:09.940Z,68.87
2018-08-23T04:28:44.184Z,63.70
2018-08-23T04:29:32.245Z,61.33
2018-08-23T04:30:07.260Z,67.60
2018-08-23T04:30:41.152Z,64.63
2018-08-23T04:31:15.104Z,64.00
2018-08-23T04:31:49.104Z,61.53
2018-08-23T04:32:29.144Z,63.20
2018-08-23T04:33:04.065Z,60.13
2018-08-23T04:33:43.551Z,62.93
2018-08-23T04:34:17.383Z,64.53
2018-08-23T04:34:51.333Z,69.63
2018-08-23T04:35:27.503Z,66.00
2018-08-23T04:36:01.545Z,62.97
2018-08-23T04:36:38.960Z,65.07
2018-08-23T04:37:12.595Z,61.63
2018-08-23T04:37:46.891Z,65.13
2018-08-23T04:38:20.549Z,64.30
2018-08-23T04:39:00.218Z,61.87
2018-08-23T04:39:34.507Z,62.70
2018-08-23T04:40:09.351Z,63.73
2018-08-23T04:40:52.738Z,63.30
2018-08-23T04:41:26.848Z,62.47
2018-08-23T04:42:01.967Z,64.87
2018-08-23T04:42:36.286Z,67.10
2018-08-23T04:43:10.385Z,59.57
2018-08-23T04:43:44.343Z,57.93
2018-08-23T04:44:22.529Z,61.87
2018-08-23T04:44:56.259Z,61.13
2018-08-23T04:45:32.707Z,59.77
2018-08-23T04:46:11.332Z,65.57
2018-08-23T04:46:45.324Z,63.13
2018-08-23T04:47:20.119Z,63.10
2018-08-23T04:47:59.866Z,62.23
2018-08-23T04:48:33.949Z,62.13
2018-08-23T04:49:07.963Z,60.27
2018-08-23T04:49:42.202Z,63.13
2018-08-23T04:50:16.071Z,61.50
2018-08-23T04:50:53.072Z,61.80
2018-08-23T04:51:27.021Z,64.73
2018-08-23T04:52:00.862Z,64.83
2018-08-23T04:52:34.640Z,60.70
2018-08-23T04:53:08.823Z,60.20
2018-08-23T04:53:42.894Z,60.77
2018-08-23T04:54:16.750Z,62.67
2018-08-23T04:54:51.207Z,62.13
2018-08-23T04:55:25.912Z,62.30
2018-08-23T04:55:59.897Z,56.67
2018-08-23T04:56:33.737Z,61.30
2018-08-23T04:57:07.759Z,58.93
2018-08-23T04:57:41.823Z,63.43
2018-08-23T04:58:15.780Z,62.93
2018-08-23T04:58:49.745Z,62.67
2018-08-23T04:59:23.570Z,68.27
2018-08-23T04:59:58.078Z,65.30
2018-08-23T05:00:32.314Z,68.53
2018-08-23T05:01:06.155Z,64.83
2018-08-23T05:01:40.154Z,61.03
2018-08-23T05:02:14.149Z,62.57
2018-08-23T05:02:48.159Z,62.57
2018-08-23T05:03:22.432Z,65.93
2018-08-23T05:03:56.155Z,63.87
2018-08-23T05:04:30.025Z,66.60
2018-08-23T05:05:04.064Z,62.87
2018-08-23T05:05:37.895Z,62.73
2018-08-23T05:06:13.560Z,64.97
2018-08-23T05:06:47.833Z,61.07
2018-08-23T05:07:22.113Z,58.53
2018-08-23T05:07:57.544Z,60.13
2018-08-23T05:08:31.297Z,66.07
2018-08-23T05:09:07.702Z,61.23
2018-08-23T05:09:41.643Z,59.70
2018-08-23T05:10:15.782Z,60.40
2018-08-23T05:10:55.483Z,63.20
2018-08-23T05:11:29.390Z,62.13
2018-08-23T05:12:03.246Z,65.23
2018-08-23T05:12:37.106Z,68.07
2018-08-23T05:13:10.813Z,63.80
2018-08-23T05:13:45.116Z,64.13
2018-08-23T05:14:19.201Z,64.40
2018-08-23T05:14:53.324Z,64.80
2018-08-23T05:15:27.904Z,69.07
2018-08-23T05:16:01.671Z,68.47
2018-08-23T05:16:35.717Z,64.87
2018-08-23T05:17:09.499Z,65.80
2018-08-23T05:17:43.793Z,62.83
2018-08-23T05:18:20.286Z,63.73
2018-08-23T05:18:54.020Z,71.43
2018-08-23T05:19:27.947Z,65.73
2018-08-23T05:20:02.190Z,59.80
2018-08-23T05:20:36.182Z,65.23
2018-08-23T05:21:10.860Z,63.13
2018-08-23T05:21:44.755Z,63.50
2018-08-23T05:22:18.596Z,66.23
2018-08-23T05:22:58.023Z,68.53
2018-08-23T05:23:32.624Z,62.83
2018-08-23T05:24:10.913Z,63.33
2018-08-23T05:24:45.525Z,73.97
2018-08-23T05:25:21.947Z,73.57
2018-08-23T05:25:59.283Z,72.30
2018-08-23T05:26:34.019Z,74.63
2018-08-23T05:27:08.212Z,73.10
2018-08-23T05:28:01.175Z,70.07
2018-08-23T05:28:37.613Z,77.53
2018-08-23T05:29:11.749Z,72.97
2018-08-23T05:29:45.843Z,66.33
2018-08-23T05:30:26.871Z,69.20
2018-08-23T05:31:01.379Z,61.53
2018-08-23T05:31:35.215Z,70.53
2018-08-23T05:32:13.170Z,70.63
2018-08-23T05:32:47.186Z,76.63
2018-08-23T05:33:22.267Z,71.80
2018-08-23T05:33:58.782Z,72.90
2018-08-23T05:34:32.530Z,69.40
2018-08-23T05:35:06.819Z,74.93
2018-08-23T05:35:41.012Z,72.60
2018-08-23T05:36:16.361Z,73.70
2018-08-23T05:36:50.289Z,71.80
2018-08-23T05:37:26.718Z,72.30
2018-08-23T05:38:01.119Z,74.60
2018-08-23T05:38:35.113Z,71.77
2018-08-23T05:39:09.268Z,72.53
2018-08-23T05:39:51.219Z,73.73
2018-08-23T05:40:24.942Z,69.77
2018-08-23T05:41:04.129Z,69.87
2018-08-23T05:41:37.888Z,73.10
2018-08-23T05:42:11.698Z,70.03
2018-08-23T05:42:53.205Z,67.30
2018-08-23T05:43:27.009Z,68.97
2018-08-23T05:44:22.781Z,68.77
2018-08-23T05:44:56.608Z,68.03
2018-08-23T05:45:36.236Z,66.63
2018-08-23T05:46:09.911Z,66.30
2018-08-23T05:46:50.650Z,74.07
2018-08-23T05:47:24.921Z,70.90
2018-08-23T05:47:59.804Z,70.57
2018-08-23T05:48:33.961Z,67.00
2018-08-23T05:49:07.855Z,70.70
2018-08-23T05:49:41.806Z,77.70
2018-08-23T05:50:17.580Z,66.50
2018-08-23T05:50:52.108Z,69.20
2018-08-23T05:51:25.897Z,67.83
2018-08-23T05:51:59.981Z,71.20
2018-08-23T05:52:34.076Z,71.50
2018-08-23T05:53:07.852Z,68.50
2018-08-23T05:53:46.355Z,70.43
2018-08-23T05:54:20.579Z,70.73
2018-08-23T05:54:55.220Z,73.23
2018-08-23T05:55:29.078Z,64.87
2018-08-23T05:56:02.991Z,66.33
2018-08-23T05:56:37.071Z,67.37
2018-08-23T05:57:10.842Z,65.97
2018-08-23T05:57:44.675Z,62.80
2018-08-23T05:58:22.266Z,67.57
2018-08-23T05:59:00.646Z,69.23
2018-08-23T05:59:34.519Z,72.20
2018-08-23T06:00:08.605Z,70.57
2018-08-23T06:00:42.248Z,73.77
2018-08-23T06:01:16.098Z,66.87
2018-08-23T06:01:50.222Z,70.63
2018-08-23T06:02:24.094Z,67.80
2018-08-23T06:02:57.975Z,68.10
2018-08-23T06:03:32.104Z,69.33
2018-08-23T06:04:05.899Z,69.60
2018-08-23T06:04:41.596Z,66.93
2018-08-23T06:05:15.538Z,67.77
2018-08-23T06:05:50.260Z,68.20
2018-08-23T06:06:24.275Z,66.77
2018-08-23T06:06:58.634Z,66.97
2018-08-23T06:07:33.396Z,67.53
2018-08-23T06:08:07.890Z,70.67
2018-08-23T06:08:42.836Z,69.97
2018-08-23T06:09:16.524Z,66.70
2018-08-23T06:09:50.714Z,63.83
2018-08-23T06:10:24.731Z,70.53
2018-08-23T06:11:05.180Z,65.57
2018-08-23T06:11:39.311Z,67.63
2018-08-23T06:12:13.122Z,69.07
2018-08-23T06:12:46.856Z,66.97
2018-08-23T06:13:21.224Z,67.57
2018-08-23T06:13:55.753Z,67.23
2018-08-23T06:14:29.742Z,66.40
2018-08-23T06:15:04.163Z,68.00
2018-08-23T06:15:46.913Z,66.50
2018-08-23T06:16:20.859Z,64.47
2018-08-23T06:16:58.143Z,65.13
2018-08-23T06:17:32.093Z,65.40
2018-08-23T06:18:06.505Z,65.23
2018-08-23T06:18:40.360Z,70.43
2018-08-23T06:19:14.607Z,68.83
2018-08-23T06:19:48.600Z,66.13
2018-08-23T06:20:22.804Z,66.73
2018-08-23T06:20:57.046Z,68.67
2018-08-23T06:21:30.860Z,63.70
2018-08-23T06:22:04.885Z,67.00
2018-08-23T06:22:38.982Z,72.53
2018-08-23T06:23:13.623Z,72.20
2018-08-23T06:23:56.186Z,68.50
2018-08-23T06:24:30.815Z,64.47
2018-08-23T06:25:04.598Z,67.07
2018-08-23T06:25:39.090Z,63.60
2018-08-23T06:26:12.860Z,64.27
2018-08-23T06:26:50.291Z,62.80
2018-08-23T06:27:24.160Z,67.33
2018-08-23T06:27:58.156Z,68.47
2018-08-23T06:28:31.999Z,64.30
2018-08-23T06:29:06.994Z,62.63
2018-08-23T06:29:41.422Z,65.67
2018-08-23T06:30:15.368Z,66.43
2018-08-23T06:30:49.242Z,62.63
2018-08-23T06:31:23.087Z,64.37
2018-08-23T06:32:04.440Z,66.10
2018-08-23T06:32:38.128Z,64.53
2018-08-23T06:33:19.230Z,66.47
2018-08-23T06:33:56.131Z,67.23
2018-08-23T06:34:35.102Z,63.43
2018-08-23T06:35:09.530Z,66.17
2018-08-23T06:35:45.378Z,64.00
2018-08-23T06:36:19.928Z,69.20
2018-08-23T06:36:53.911Z,65.53
2018-08-23T06:37:27.840Z,61.77
2018-08-23T06:38:01.987Z,63.27
2018-08-23T06:38:36.751Z,62.87
2018-08-23T06:39:10.991Z,59.90
2018-08-23T06:39:44.666Z,67.37
2018-08-23T06:40:19.112Z,65.77
2018-08-23T06:40:53.030Z,60.77
2018-08-23T06:41:28.102Z,65.77
2018-08-23T06:42:02.723Z,63.57
2018-08-23T06:42:45.366Z,63.47
2018-08-23T06:43:18.996Z,65.70
2018-08-23T06:43:52.846Z,65.77
2018-08-23T06:44:38.794Z,64.00
2018-08-23T06:45:12.694Z,64.93
2018-08-23T06:45:46.480Z,65.37
2018-08-23T06:46:20.336Z,63.63
2018-08-23T06:46:54.330Z,65.80
2018-08-23T06:47:28.458Z,62.30
2018-08-23T06:48:02.839Z,63.17
2018-08-23T06:48:37.071Z,62.20
2018-08-23T06:49:10.825Z,66.67
2018-08-23T06:49:46.023Z,61.57
2018-08-23T06:50:24.396Z,68.60
2018-08-23T06:50:59.778Z,63.70
2018-08-23T06:51:34.086Z,64.17
2018-08-23T06:52:34.656Z,63.33
2018-08-23T06:53:08.688Z,65.80
2018-08-23T06:53:45.773Z,60.57
2018-08-23T06:54:19.744Z,65.33
2018-08-23T06:54:53.562Z,61.07
2018-08-23T06:55:34.932Z,61.83
2018-08-23T06:56:09.579Z,64.60
2018-08-23T06:56:44.024Z,59.73
2018-08-23T06:57:17.870Z,62.77
2018-08-23T06:57:56.517Z,62.60
2018-08-23T06:58:30.427Z,58.60
2018-08-23T06:59:04.749Z,58.97
2018-08-23T06:59:39.157Z,62.93
2018-08-23T07:00:17.332Z,63.53
2018-08-23T07:00:51.509Z,61.83
2018-08-23T07:01:35.205Z,61.50
2018-08-23T07:02:09.155Z,60.60
2018-08-23T07:02:46.893Z,62.40
2018-08-23T07:03:20.846Z,59.67
2018-08-23T07:04:01.332Z,63.07
2018-08-23T07:04:35.392Z,59.60
2018-08-23T07:05:09.574Z,61.18
2018-08-23T07:05:43.379Z,59.23
2018-08-23T07:06:17.304Z,57.80
2018-08-23T07:06:51.563Z,59.03
2018-08-23T07:07:25.312Z,62.77
2018-08-23T07:08:00.400Z,63.67
2018-08-23T07:08:34.508Z,59.40
2018-08-23T07:09:16.062Z,57.73
2018-08-23T07:09:49.830Z,60.33
2018-08-23T07:10:23.568Z,58.07
2018-08-23T07:11:04.143Z,59.30
2018-08-23T07:11:38.114Z,60.73
2018-08-23T07:12:19.269Z,55.73
2018-08-23T07:12:55.792Z,60.13
2018-08-23T07:13:29.862Z,57.07
2018-08-23T07:14:09.583Z,50.97
2018-08-23T07:14:45.311Z,55.50
2018-08-23T07:15:19.076Z,57.03
2018-08-23T07:15:59.568Z,54.00
2018-08-23T07:16:34.572Z,51.53
2018-08-23T07:17:17.254Z,55.27
2018-08-23T07:17:50.928Z,51.73
2018-08-23T07:18:24.804Z,50.10
2018-08-23T07:19:01.352Z,50.70
2018-08-23T07:19:35.276Z,52.53
2018-08-23T07:20:13.476Z,54.63
2018-08-23T07:20:47.258Z,51.70
2018-08-23T07:21:21.084Z,52.07
2018-08-23T07:21:55.703Z,49.42
2018-08-23T07:22:29.681Z,47.25
2018-08-23T07:23:08.818Z,47.05
2018-08-23T07:23:42.719Z,51.80
2018-08-23T07:24:28.345Z,51.58
2018-08-23T07:25:02.399Z,49.05
2018-08-23T07:25:41.873Z,47.33
2018-08-23T07:26:15.593Z,48.13
2018-08-23T07:26:49.666Z,48.08
2018-08-23T07:27:24.058Z,52.23
2018-08-23T07:27:58.614Z,49.05
2018-08-23T07:28:34.177Z,46.92
2018-08-23T07:29:08.269Z,47.83
2018-08-23T07:29:45.306Z,49.00
2018-08-23T07:30:20.136Z,46.42
2018-08-23T07:30:53.893Z,49.85
2018-08-23T07:31:27.859Z,47.58
2018-08-23T07:32:03.866Z,50.10
2018-08-23T07:32:39.896Z,48.08
2018-08-23T07:33:14.064Z,46.42
2018-08-23T07:33:51.736Z,49.58
2018-08-23T07:34:25.540Z,48.10
2018-08-23T07:35:05.402Z,50.08
2018-08-23T07:35:39.544Z,53.52
2018-08-23T07:36:29.456Z,48.05
2018-08-23T07:37:17.057Z,50.52
2018-08-23T07:37:51.958Z,46.30
2018-08-23T07:38:25.912Z,49.50
2018-08-23T07:38:59.789Z,48.85
2018-08-23T07:39:34.008Z,47.65
2018-08-23T07:40:10.132Z,51.35
2018-08-23T07:40:44.110Z,51.75
2018-08-23T07:41:17.989Z,47.70
2018-08-23T07:41:51.892Z,50.52
2018-08-23T07:42:27.956Z,47.33
2018-08-23T07:43:01.790Z,47.98